Time;durP1;ratioP1;P1;durP2;ratioP2;P2;SDS_P1;SDS_P2;PMS_P1;PMS_P2;Temp;Humidity;BMP_temperature;BMP_pressure;BME280_temperature;BME280_humidity;BME280_pressure;Samples;Min_cycle;Max_cycle;Signal;HPM_P1;HPM_P2
2024/01/05 00:00:30;;;;;;;1.30;1.20;;;0.60;99.90;;;;;;6251491;23;20190;-82
2024/01/05 00:02:59;;;;;;;1.05;1.05;;;0.90;99.90;;;;;;6251613;23;20763;-81
2024/01/05 00:05:26;;;;;;;1.70;1.60;;;0.90;99.90;;;;;;6251493;23;20180;-83
2024/01/05 00:07:54;;;;;;;0.80;0.80;;;0.80;99.90;;;;;;6251502;23;20184;-81
2024/01/05 00:10:21;;;;;;;0.50;0.50;;;0.70;99.90;;;;;;6250782;23;20199;-80
2024/01/05 00:12:49;;;;;;;0.85;0.85;;;0.70;99.90;;;;;;6250141;23;20184;-80
2024/01/05 00:15:16;;;;;;;0.60;0.60;;;0.70;99.90;;;;;;6251854;23;20271;-81
2024/01/05 00:17:46;;;;;;;0.95;0.95;;;0.70;99.90;;;;;;6225502;23;20184;-83
2024/01/05 00:20:14;;;;;;;0.40;0.40;;;0.70;99.90;;;;;;6254286;23;20179;-79
2024/01/05 00:22:41;;;;;;;0.82;0.82;;;0.70;99.90;;;;;;6252593;23;20179;-81
2024/01/05 00:25:08;;;;;;;0.80;0.80;;;0.70;99.90;;;;;;6224408;23;20176;-79
2024/01/05 00:27:37;;;;;;;1.58;1.48;;;0.60;99.90;;;;;;6250706;23;20191;-79
2024/01/05 00:30:05;;;;;;;0.60;0.60;;;0.70;99.90;;;;;;6249028;23;20745;-78
2024/01/05 00:32:34;;;;;;;0.75;0.75;;;0.70;99.90;;;;;;6251038;23;20184;-80
2024/01/05 00:35:05;;;;;;;1.25;1.25;;;0.60;99.90;;;;;;6253836;23;20296;-79
2024/01/05 00:37:34;;;;;;;1.15;1.15;;;0.70;99.90;;;;;;6252545;23;20184;-80
2024/01/05 00:40:09;;;;;;;0.43;0.43;;;0.70;99.90;;;;;;6253286;23;20186;-82
2024/01/05 00:42:35;;;;;;;0.40;0.40;;;0.70;99.90;;;;;;6267053;23;20183;-82
2024/01/05 00:45:04;;;;;;;0.50;0.50;;;0.60;99.90;;;;;;6272295;22;20167;-81
2024/01/05 00:47:31;;;;;;;0.60;0.60;;;0.60;99.90;;;;;;6244757;23;20243;-80
2024/01/05 00:49:59;;;;;;;0.77;0.77;;;0.60;99.90;;;;;;6233571;23;20196;-80
2024/01/05 00:52:26;;;;;;;0.40;0.40;;;0.60;99.90;;;;;;6255206;23;20159;-80
2024/01/05 00:54:54;;;;;;;0.50;0.50;;;0.50;99.90;;;;;;6227951;23;20207;-81
2024/01/05 00:57:21;;;;;;;0.50;0.50;;;0.60;99.90;;;;;;6253025;23;20214;-81
2024/01/05 00:59:48;;;;;;;0.75;0.75;;;0.60;99.90;;;;;;6250998;23;20507;-83
2024/01/05 01:02:15;;;;;;;0.82;0.82;;;0.50;99.90;;;;;;6251669;23;20230;-82
2024/01/05 01:04:42;;;;;;;0.65;0.65;;;0.50;99.90;;;;;;6251123;23;20349;-83
2024/01/05 01:07:09;;;;;;;1.25;1.15;;;0.60;99.90;;;;;;6251030;23;20190;-83
2024/01/05 01:09:38;;;;;;;0.75;0.75;;;0.60;99.90;;;;;;6251484;23;20298;-81
2024/01/05 01:12:08;;;;;;;0.60;0.60;;;0.60;99.90;;;;;;6225565;23;20190;-83
2024/01/05 01:14:36;;;;;;;2.00;1.90;;;0.60;99.90;;;;;;6255266;23;20187;-84
2024/01/05 01:17:03;;;;;;;0.50;0.50;;;0.60;99.90;;;;;;6253117;23;20271;-84
2024/01/05 01:19:31;;;;;;;0.50;0.50;;;0.60;99.90;;;;;;6225178;23;20211;-82
2024/01/05 01:22:00;;;;;;;0.60;0.60;;;0.60;99.90;;;;;;6251565;23;20180;-83
2024/01/05 01:24:28;;;;;;;0.60;0.60;;;0.60;99.90;;;;;;6241201;22;20164;-84
2024/01/05 01:26:55;;;;;;;0.60;0.60;;;0.60;99.90;;;;;;6273405;22;20363;-84
2024/01/05 01:29:24;;;;;;;0.70;0.70;;;0.60;99.90;;;;;;6257450;23;20206;-82
2024/01/05 01:31:52;;;;;;;0.50;0.50;;;0.60;99.90;;;;;;6251262;23;20207;-81
2024/01/05 01:34:18;;;;;;;0.60;0.60;;;0.50;99.90;;;;;;6253358;23;20191;-81
2024/01/05 01:36:46;;;;;;;0.75;0.75;;;0.60;99.90;;;;;;6253548;23;20184;-82
2024/01/05 01:39:13;;;;;;;1.25;0.98;;;0.50;99.90;;;;;;6253731;23;20176;-82
2024/01/05 01:41:42;;;;;;;1.00;1.00;;;0.50;99.90;;;;;;6252658;23;20643;-81
2024/01/05 01:44:12;;;;;;;0.40;0.40;;;0.60;99.90;;;;;;6250571;23;20165;-83
2024/01/05 01:46:39;;;;;;;0.60;0.60;;;0.60;99.90;;;;;;6250248;23;20215;-82
2024/01/05 01:49:07;;;;;;;0.52;0.52;;;0.60;99.90;;;;;;6249597;23;20723;-82
2024/01/05 01:51:35;;;;;;;0.75;0.75;;;0.60;99.90;;;;;;6251384;23;20211;-81
2024/01/05 01:54:05;;;;;;;0.50;0.50;;;0.60;99.90;;;;;;6250587;23;20209;-82
2024/01/05 01:56:36;;;;;;;0.60;0.60;;;0.50;99.90;;;;;;6249798;23;20168;-82
2024/01/05 01:59:06;;;;;;;0.85;0.70;;;0.60;99.90;;;;;;6249347;23;20198;-82
2024/01/05 02:01:34;;;;;;;1.00;0.85;;;0.60;99.90;;;;;;6249991;23;20380;-83
2024/01/05 02:04:01;;;;;;;0.73;0.73;;;0.60;99.90;;;;;;6251060;23;20184;-83
2024/01/05 02:06:30;;;;;;;1.55;1.45;;;0.60;99.90;;;;;;6222987;23;20234;-82
2024/01/05 02:08:58;;;;;;;0.50;0.50;;;0.50;99.90;;;;;;6249707;23;20176;-82
2024/01/05 02:11:25;;;;;;;0.50;0.50;;;0.50;99.90;;;;;;6249448;23;20229;-83
2024/01/05 02:13:53;;;;;;;0.70;0.70;;;0.60;99.90;;;;;;6223973;23;20242;-83
2024/01/05 02:16:20;;;;;;;0.57;0.57;;;0.60;99.90;;;;;;6249519;23;20176;-83
2024/01/05 02:18:52;;;;;;;0.88;0.88;;;0.60;99.90;;;;;;6222945;23;20292;-81
2024/01/05 02:21:26;;;;;;;0.68;0.68;;;0.60;99.90;;;;;;6250424;23;20250;-83
2024/01/05 02:23:54;;;;;;;0.50;0.50;;;0.60;99.90;;;;;;6249993;23;20168;-82
2024/01/05 02:26:22;;;;;;;0.60;0.60;;;0.60;99.90;;;;;;6249938;23;20250;-84
2024/01/05 02:28:51;;;;;;;0.57;0.57;;;0.60;99.90;;;;;;6251085;23;20491;-82
2024/01/05 02:31:26;;;;;;;0.82;0.82;;;0.50;99.90;;;;;;6252057;23;20426;-82
2024/01/05 02:33:53;;;;;;;0.50;0.50;;;0.60;99.90;;;;;;6250220;23;20188;-82
2024/01/05 02:36:20;;;;;;;0.50;0.50;;;0.50;99.90;;;;;;6250517;23;20191;-82
2024/01/05 02:38:48;;;;;;;0.50;0.50;;;0.50;99.90;;;;;;6225106;23;20183;-82
2024/01/05 02:41:15;;;;;;;0.65;0.65;;;0.40;99.90;;;;;;6248999;23;20233;-81
2024/01/05 02:43:42;;;;;;;0.60;0.60;;;0.50;99.90;;;;;;6250051;23;20203;-84
2024/01/05 02:46:09;;;;;;;0.73;0.73;;;0.40;99.90;;;;;;6250646;23;20203;-83
2024/01/05 02:48:37;;;;;;;0.88;0.88;;;0.40;99.90;;;;;;6224576;23;20179;-83
2024/01/05 02:51:05;;;;;;;1.13;1.13;;;0.40;99.90;;;;;;6250724;23;20223;-85
2024/01/05 02:53:32;;;;;;;0.70;0.70;;;0.40;99.90;;;;;;6251681;23;20193;-83
2024/01/05 02:56:00;;;;;;;0.80;0.80;;;0.30;99.90;;;;;;6250353;23;20199;-83
2024/01/05 02:58:30;;;;;;;0.85;0.85;;;0.30;99.90;;;;;;6249878;23;20376;-83
2024/01/05 03:00:59;;;;;;;0.60;0.60;;;0.30;99.90;;;;;;6250413;23;20191;-82
2024/01/05 03:03:29;;;;;;;5.78;1.35;;;0.20;99.90;;;;;;6250361;23;20242;-82
2024/01/05 03:06:00;;;;;;;0.88;0.88;;;0.20;99.90;;;;;;6256783;22;20543;-83
2024/01/05 03:08:27;;;;;;;0.50;0.50;;;0.20;99.90;;;;;;6268256;23;20349;-81
2024/01/05 03:10:55;;;;;;;1.70;1.60;;;0.20;99.90;;;;;;6267939;23;20222;-82
2024/01/05 03:13:25;;;;;;;0.98;0.98;;;0.30;99.90;;;;;;6268436;22;20182;-81
2024/01/05 03:15:56;;;;;;;0.68;0.68;;;0.40;99.90;;;;;;6231194;23;20182;-82
2024/01/05 03:18:22;;;;;;;0.90;0.90;;;0.50;99.90;;;;;;6255173;23;20218;-81
2024/01/05 03:20:49;;;;;;;0.70;0.70;;;0.40;99.90;;;;;;6249255;23;20188;-82
2024/01/05 03:23:16;;;;;;;0.50;0.50;;;0.40;99.90;;;;;;6249471;23;20190;-82
2024/01/05 03:25:45;;;;;;;0.50;0.50;;;0.30;99.90;;;;;;6251917;23;20718;-82
2024/01/05 03:28:12;;;;;;;0.60;0.60;;;0.40;99.90;;;;;;6253418;23;20178;-84
2024/01/05 03:30:40;;;;;;;0.50;0.50;;;0.40;99.90;;;;;;6261483;22;20191;-83
2024/01/05 03:33:09;;;;;;;1.05;1.05;;;0.30;99.90;;;;;;6269329;22;20235;-81
2024/01/05 03:35:37;;;;;;;1.00;1.00;;;0.30;99.90;;;;;;6260464;23;20190;-82
2024/01/05 03:38:04;;;;;;;0.40;0.40;;;0.30;99.90;;;;;;6260877;23;20533;-82
2024/01/05 03:40:31;;;;;;;0.98;0.82;;;0.30;99.90;;;;;;6260598;23;20255;-81
2024/01/05 03:42:58;;;;;;;0.68;0.68;;;0.30;99.90;;;;;;6259409;23;20234;-81
2024/01/05 03:45:25;;;;;;;1.48;0.98;;;0.30;99.90;;;;;;6233301;23;20194;-80
2024/01/05 03:47:52;;;;;;;0.60;0.60;;;0.40;99.90;;;;;;6258707;23;20183;-81
2024/01/05 03:50:19;;;;;;;0.50;0.50;;;0.50;99.90;;;;;;6256198;23;20511;-81
2024/01/05 03:52:46;;;;;;;0.50;0.50;;;0.30;99.90;;;;;;6251910;23;20182;-81
2024/01/05 03:55:13;;;;;;;0.60;0.60;;;0.30;99.90;;;;;;6223010;23;20592;-80
2024/01/05 03:57:41;;;;;;;0.43;0.43;;;0.40;99.90;;;;;;6248717;23;20214;-81
2024/01/05 04:00:08;;;;;;;1.25;1.25;;;0.50;99.90;;;;;;6248839;23;20278;-80
2024/01/05 04:02:35;;;;;;;0.40;0.40;;;0.60;99.90;;;;;;6222189;23;20191;-80
2024/01/05 04:05:02;;;;;;;0.95;0.95;;;0.60;99.90;;;;;;6222209;23;20490;-80
2024/01/05 04:07:30;;;;;;;1.08;1.08;;;0.60;99.90;;;;;;6248210;23;20179;-80
2024/01/05 04:09:56;;;;;;;1.42;1.40;;;0.60;99.90;;;;;;6247627;23;20187;-80
2024/01/05 04:12:23;;;;;;;1.13;1.13;;;0.60;99.90;;;;;;6249026;23;20467;-81
2024/01/05 04:14:50;;;;;;;0.40;0.40;;;0.60;99.90;;;;;;6248088;23;20231;-81
2024/01/05 04:17:17;;;;;;;0.50;0.50;;;0.60;99.90;;;;;;6249430;23;20214;-81
2024/01/05 04:19:44;;;;;;;0.90;0.90;;;0.60;99.90;;;;;;6222755;23;20346;-83
2024/01/05 04:22:11;;;;;;;1.10;1.10;;;0.50;99.90;;;;;;6222266;23;20211;-81
2024/01/05 04:24:39;;;;;;;1.40;1.35;;;0.60;99.90;;;;;;6248241;23;20345;-80
2024/01/05 04:27:06;;;;;;;1.88;0.70;;;0.60;99.90;;;;;;6248017;23;20183;-81
2024/01/05 04:29:33;;;;;;;0.50;0.50;;;0.60;99.90;;;;;;6246938;23;20516;-81
2024/01/05 04:32:00;;;;;;;2.50;2.40;;;0.60;99.90;;;;;;6247694;23;20274;-80
2024/01/05 04:34:27;;;;;;;0.88;0.50;;;0.50;99.90;;;;;;6250687;23;20184;-80
2024/01/05 04:36:55;;;;;;;0.70;0.70;;;0.50;99.90;;;;;;6250500;23;20222;-81
2024/01/05 04:39:23;;;;;;;0.90;0.90;;;0.50;99.90;;;;;;6224024;23;20243;-81
2024/01/05 04:41:50;;;;;;;1.75;1.25;;;0.60;99.90;;;;;;6251609;23;20209;-83
2024/01/05 04:44:17;;;;;;;1.98;1.88;;;0.60;99.90;;;;;;6252309;23;20183;-81
2024/01/05 04:46:44;;;;;;;0.50;0.50;;;0.60;99.90;;;;;;6224917;23;20211;-80
2024/01/05 04:49:12;;;;;;;0.85;0.80;;;0.60;99.90;;;;;;6250446;23;20183;-80
2024/01/05 04:51:39;;;;;;;1.30;0.95;;;0.60;99.90;;;;;;6247571;23;20542;-80
2024/01/05 04:54:09;;;;;;;1.08;1.08;;;0.60;99.90;;;;;;6249318;23;20168;-81
2024/01/05 04:56:37;;;;;;;1.63;1.52;;;0.60;99.90;;;;;;6249527;23;20193;-81
2024/01/05 04:59:04;;;;;;;0.50;0.50;;;0.60;99.90;;;;;;6249792;23;20211;-83
2024/01/05 05:01:31;;;;;;;0.40;0.40;;;0.60;99.90;;;;;;6249800;23;20248;-83
2024/01/05 05:04:00;;;;;;;0.47;0.47;;;0.60;99.90;;;;;;6250824;23;20172;-81
2024/01/05 05:06:27;;;;;;;0.50;0.50;;;0.50;99.90;;;;;;6249251;23;20183;-82
2024/01/05 05:08:56;;;;;;;1.27;1.27;;;0.60;99.90;;;;;;6249922;23;20190;-82
2024/01/05 05:11:25;;;;;;;1.95;1.88;;;0.60;99.90;;;;;;6249985;23;20460;-81
2024/01/05 05:13:52;;;;;;;4.38;3.40;;;0.60;99.90;;;;;;6249302;23;20190;-83
2024/01/05 05:16:19;;;;;;;3.55;3.25;;;0.60;99.90;;;;;;6252574;23;20230;-85
2024/01/05 05:18:49;;;;;;;0.70;0.70;;;0.60;99.90;;;;;;6254789;23;20190;-83
2024/01/05 05:21:16;;;;;;;1.65;1.40;;;0.60;99.90;;;;;;6254509;23;20447;-81
2024/01/05 05:23:44;;;;;;;4.40;1.05;;;0.60;99.90;;;;;;6263186;22;20516;-86
2024/01/05 05:26:11;;;;;;;1.15;1.15;;;0.60;99.90;;;;;;6273058;22;20176;-82
2024/01/05 05:28:38;;;;;;;1.65;0.95;;;0.60;99.90;;;;;;6271490;22;20163;-83
2024/01/05 05:31:05;;;;;;;9.27;3.05;;;0.60;99.90;;;;;;6254309;23;20222;-84
2024/01/05 05:33:33;;;;;;;1.40;1.30;;;0.60;99.90;;;;;;6252888;23;20230;-82
2024/01/05 05:36:00;;;;;;;1.10;1.10;;;0.60;99.90;;;;;;6251054;23;20183;-82
2024/01/05 05:38:27;;;;;;;0.88;0.88;;;0.60;99.90;;;;;;6224970;23;20191;-83
2024/01/05 05:40:55;;;;;;;0.70;0.70;;;0.70;99.90;;;;;;6227678;23;20192;-84
2024/01/05 05:43:22;;;;;;;4.15;3.85;;;0.80;99.90;;;;;;6256082;23;20247;-83
2024/01/05 05:45:49;;;;;;;1.38;1.30;;;0.70;99.90;;;;;;6251964;23;20230;-84
2024/01/05 05:48:21;;;;;;;0.50;0.50;;;0.70;99.90;;;;;;6226828;23;20195;-84
2024/01/05 05:50:48;;;;;;;0.50;0.50;;;0.70;99.90;;;;;;6254008;23;20213;-84
2024/01/05 05:53:18;;;;;;;0.60;0.60;;;0.70;99.90;;;;;;6254839;23;20183;-83
2024/01/05 05:55:44;;;;;;;8.32;3.03;;;0.60;99.90;;;;;;6260393;22;20164;-85
2024/01/05 05:58:12;;;;;;;0.80;0.80;;;0.60;99.90;;;;;;6268228;22;20204;-81
2024/01/05 06:00:42;;;;;;;0.50;0.50;;;0.60;99.90;;;;;;6241256;22;20178;-85
2024/01/05 06:03:09;;;;;;;0.63;0.63;;;0.50;99.90;;;;;;6273660;22;20218;-85
2024/01/05 06:05:39;;;;;;;0.60;0.60;;;0.50;99.90;;;;;;6262948;22;20191;-82
2024/01/05 06:08:07;;;;;;;1.77;1.67;;;0.50;99.90;;;;;;6250222;23;20377;-82
2024/01/05 06:10:34;;;;;;;1.30;1.25;;;0.30;99.90;;;;;;6250853;23;20282;-83
2024/01/05 06:13:04;;;;;;;0.80;0.80;;;0.30;99.90;;;;;;6225989;23;20179;-84
2024/01/05 06:15:31;;;;;;;0.93;0.93;;;0.30;99.90;;;;;;6250800;23;20274;-83
2024/01/05 06:17:58;;;;;;;2.25;1.20;;;0.30;99.90;;;;;;6251194;23;20191;-85
2024/01/05 06:20:26;;;;;;;1.67;1.58;;;0.30;99.90;;;;;;6252618;23;20184;-88
2024/01/05 06:22:53;;;;;;;1.63;1.33;;;0.30;99.90;;;;;;6253081;23;20207;-82
2024/01/05 06:25:20;;;;;;;1.33;1.25;;;0.30;99.90;;;;;;6225638;23;20184;-82
2024/01/05 06:27:47;;;;;;;1.02;1.02;;;0.30;99.90;;;;;;6253227;23;20179;-82
2024/01/05 06:30:14;;;;;;;3.03;2.78;;;0.20;99.90;;;;;;6229135;23;20186;-84
2024/01/05 06:32:41;;;;;;;1.65;1.60;;;0.20;99.90;;;;;;6252681;23;20215;-85
2024/01/05 06:35:09;;;;;;;0.50;0.50;;;0.30;99.90;;;;;;6225122;23;20239;-83
2024/01/05 06:37:36;;;;;;;3.90;1.00;;;0.30;99.90;;;;;;6226915;23;20546;-83
2024/01/05 06:40:03;;;;;;;1.15;1.15;;;0.20;99.90;;;;;;6261967;23;20326;-84
2024/01/05 06:42:30;;;;;;;1.58;1.48;;;0.20;99.90;;;;;;6253894;23;20210;-83
2024/01/05 06:44:57;;;;;;;8.77;2.78;;;0.30;99.90;;;;;;6262537;22;20173;-83
2024/01/05 06:47:25;;;;;;;0.70;0.70;;;0.30;99.90;;;;;;6259134;23;20180;-83
2024/01/05 06:49:52;;;;;;;0.50;0.50;;;0.30;99.90;;;;;;6233469;23;20236;-84
2024/01/05 06:52:20;;;;;;;2.25;2.15;;;0.30;99.90;;;;;;6254306;23;20222;-84
2024/01/05 06:54:47;;;;;;;0.50;0.50;;;0.20;99.90;;;;;;6257269;23;20622;-83
2024/01/05 06:57:14;;;;;;;1.27;1.17;;;0.20;99.90;;;;;;6260045;23;20267;-85
2024/01/05 06:59:41;;;;;;;2.00;1.88;;;0.20;99.90;;;;;;6254222;23;20180;-84
2024/01/05 07:02:08;;;;;;;1.35;1.35;;;0.20;99.90;;;;;;6254285;23;20209;-80
2024/01/05 07:04:35;;;;;;;2.08;1.95;;;0.30;99.90;;;;;;6224666;23;20403;-83
2024/01/05 07:07:02;;;;;;;0.50;0.50;;;0.20;99.90;;;;;;6252631;23;20207;-85
2024/01/05 07:09:29;;;;;;;0.40;0.40;;;0.30;99.90;;;;;;6226159;23;20187;-83
2024/01/05 07:11:56;;;;;;;2.55;1.40;;;0.30;99.90;;;;;;6253360;23;20207;-85
2024/01/05 07:14:23;;;;;;;0.98;0.98;;;0.40;99.90;;;;;;6229519;23;20179;-85
2024/01/05 07:16:50;;;;;;;0.40;0.40;;;0.40;99.90;;;;;;6254448;23;20407;-85
2024/01/05 07:19:18;;;;;;;1.52;1.52;;;0.50;99.90;;;;;;6252213;23;20537;-84
2024/01/05 07:21:45;;;;;;;2.70;2.50;;;0.50;99.90;;;;;;6249857;23;20191;-82
2024/01/05 07:24:16;;;;;;;0.52;0.52;;;0.50;99.90;;;;;;6256586;23;20194;-84
2024/01/05 07:26:44;;;;;;;1.50;0.93;;;0.50;99.90;;;;;;6228912;23;20183;-82
2024/01/05 07:29:12;;;;;;;3.20;2.05;;;0.50;99.90;;;;;;6252066;23;20222;-87
2024/01/05 07:31:39;;;;;;;1.48;1.38;;;0.60;99.90;;;;;;6226769;23;20231;-85
2024/01/05 07:34:07;;;;;;;0.65;0.65;;;0.60;99.90;;;;;;6249637;23;20186;-86
2024/01/05 07:36:35;;;;;;;2.80;1.70;;;0.60;99.90;;;;;;6251718;23;20230;-83
2024/01/05 07:39:03;;;;;;;0.77;0.77;;;0.70;99.90;;;;;;6257069;23;20168;-85
2024/01/05 07:41:30;;;;;;;1.23;1.23;;;0.70;99.90;;;;;;6229472;23;20183;-84
2024/01/05 07:43:57;;;;;;;1.08;1.08;;;0.70;99.90;;;;;;6251178;23;20211;-85
2024/01/05 07:46:26;;;;;;;1.17;1.15;;;0.70;99.90;;;;;;6253183;23;20191;-84
2024/01/05 07:48:54;;;;;;;0.82;0.82;;;0.80;99.90;;;;;;6252334;23;20180;-83
2024/01/05 07:51:22;;;;;;;4.20;2.67;;;0.80;99.90;;;;;;6223767;23;20208;-81
2024/01/05 07:53:49;;;;;;;1.75;1.75;;;0.80;99.90;;;;;;6255838;23;20229;-82
2024/01/05 07:56:17;;;;;;;3.17;1.95;;;0.80;99.90;;;;;;6234901;23;20208;-83
2024/01/05 07:58:45;;;;;;;2.38;2.28;;;0.80;99.90;;;;;;6263332;23;20195;-84
2024/01/05 08:01:18;;;;;;;1.40;1.40;;;0.90;99.90;;;;;;6261820;23;20176;-84
2024/01/05 08:03:46;;;;;;;0.60;0.60;;;0.90;99.90;;;;;;6229679;23;20160;-85
2024/01/05 08:06:18;;;;;;;0.98;0.98;;;0.90;99.90;;;;;;6249967;23;20186;-84
2024/01/05 08:08:52;;;;;;;1.17;1.17;;;0.90;99.90;;;;;;6255538;23;20175;-84
2024/01/05 08:11:19;;;;;;;1.70;1.65;;;1.10;99.90;;;;;;6251890;23;20226;-83
2024/01/05 08:13:46;;;;;;;1.02;0.98;;;1.00;99.90;;;;;;6253602;23;20367;-84
2024/01/05 08:16:13;;;;;;;0.85;0.85;;;1.00;99.90;;;;;;6253055;23;20203;-84
2024/01/05 08:18:41;;;;;;;5.35;3.00;;;0.90;99.90;;;;;;6252654;23;20187;-84
2024/01/05 08:21:08;;;;;;;2.33;2.22;;;1.00;99.90;;;;;;6256548;23;20180;-83
2024/01/05 08:23:36;;;;;;;0.60;0.60;;;0.90;99.90;;;;;;6259866;23;20259;-83
2024/01/05 08:26:04;;;;;;;0.95;0.95;;;0.90;99.90;;;;;;6260900;23;20180;-84
2024/01/05 08:28:31;;;;;;;42.35;3.47;;;1.00;99.90;;;;;;6263103;22;20187;-83
2024/01/05 08:31:00;;;;;;;1.05;1.05;;;1.10;99.90;;;;;;6255611;23;20175;-84
2024/01/05 08:33:27;;;;;;;2.35;2.25;;;1.00;99.90;;;;;;6250613;23;20188;-83
2024/01/05 08:35:55;;;;;;;1.05;1.05;;;1.20;99.90;;;;;;6251668;23;20184;-81
2024/01/05 08:38:22;;;;;;;1.27;1.23;;;1.10;99.90;;;;;;6250232;23;20176;-82
2024/01/05 08:40:50;;;;;;;1.98;1.88;;;1.10;99.90;;;;;;6252028;23;20188;-83
2024/01/05 08:43:18;;;;;;;1.98;1.88;;;1.00;99.90;;;;;;6252074;23;20187;-80
2024/01/05 08:45:46;;;;;;;1.77;1.67;;;1.00;99.90;;;;;;6259615;22;20182;-85
2024/01/05 08:48:16;;;;;;;1.00;1.00;;;1.10;99.90;;;;;;6267017;22;20226;-82
2024/01/05 08:50:43;;;;;;;0.93;0.93;;;1.20;99.90;;;;;;6232780;22;20388;-80
2024/01/05 08:53:12;;;;;;;0.93;0.93;;;1.30;99.90;;;;;;6253285;23;20226;-82
2024/01/05 08:55:39;;;;;;;1.63;1.05;;;1.30;99.90;;;;;;6253914;23;20206;-83
2024/01/05 08:58:06;;;;;;;1.25;0.75;;;1.20;99.90;;;;;;6251676;23;20491;-82
2024/01/05 09:00:33;;;;;;;0.50;0.50;;;1.10;99.90;;;;;;6253269;23;20175;-82
2024/01/05 09:03:01;;;;;;;1.45;1.40;;;1.10;99.90;;;;;;6252307;23;20188;-86
2024/01/05 09:05:29;;;;;;;5.28;2.58;;;1.10;99.90;;;;;;6253092;23;20207;-86
2024/01/05 09:07:56;;;;;;;3.25;2.92;;;1.20;99.90;;;;;;6226935;23;20194;-86
2024/01/05 09:10:23;;;;;;;2.63;2.15;;;1.40;99.90;;;;;;6252756;23;20179;-82
2024/01/05 09:12:50;;;;;;;2.10;1.85;;;1.70;99.90;;;;;;6252606;23;20226;-84
2024/01/05 09:15:17;;;;;;;1.38;1.35;;;2.20;99.90;;;;;;6250903;23;20189;-83
2024/01/05 09:17:44;;;;;;;0.90;0.90;;;2.10;99.90;;;;;;6251189;23;20207;-80
2024/01/05 09:20:12;;;;;;;2.50;2.35;;;1.90;99.90;;;;;;6252129;23;20191;-85
2024/01/05 09:22:39;;;;;;;0.93;0.93;;;1.90;99.90;;;;;;6250259;23;20214;-85
2024/01/05 09:25:08;;;;;;;1.52;1.02;;;2.00;99.90;;;;;;6251074;23;20175;-82
2024/01/05 09:27:35;;;;;;;0.98;0.98;;;2.10;99.90;;;;;;6225953;23;20183;-85
2024/01/05 09:30:03;;;;;;;1.35;1.25;;;2.00;99.90;;;;;;6251025;23;20180;-84
2024/01/05 09:32:30;;;;;;;1.13;1.13;;;2.00;99.90;;;;;;6251334;23;20226;-85
2024/01/05 09:34:58;;;;;;;1.02;1.02;;;2.10;99.90;;;;;;6251023;23;20190;-84
2024/01/05 09:37:24;;;;;;;1.02;0.70;;;2.10;99.90;;;;;;6223743;23;20487;-83
2024/01/05 09:39:52;;;;;;;0.95;0.95;;;2.20;99.90;;;;;;6250881;23;20224;-81
2024/01/05 09:42:19;;;;;;;0.60;0.60;;;2.10;99.90;;;;;;6226368;23;20190;-84
2024/01/05 09:44:48;;;;;;;0.60;0.60;;;2.10;99.90;;;;;;6253612;23;20188;-81
2024/01/05 09:47:17;;;;;;;0.65;0.65;;;2.10;99.90;;;;;;6253617;23;20183;-82
2024/01/05 09:49:48;;;;;;;1.75;1.70;;;2.20;99.90;;;;;;6260778;23;20195;-83
2024/01/05 09:52:19;;;;;;;2.00;1.90;;;2.20;99.90;;;;;;6256110;23;20215;-85
2024/01/05 09:54:46;;;;;;;0.85;0.85;;;2.20;99.90;;;;;;6233463;23;20196;-82
2024/01/05 09:57:17;;;;;;;2.47;1.55;;;2.00;99.90;;;;;;6267611;22;20235;-82
2024/01/05 09:59:47;;;;;;;2.20;2.10;;;2.00;99.90;;;;;;6269112;22;20191;-88
2024/01/05 10:02:25;;;;;;;0.50;0.50;;;2.10;99.90;;;;;;6266594;22;20170;-82
2024/01/05 10:04:54;;;;;;;3.75;3.47;;;2.10;99.90;;;;;;6236731;22;20202;-83
2024/01/05 10:07:21;;;;;;;1.48;1.48;;;2.30;99.90;;;;;;6229593;23;20183;-84
2024/01/05 10:09:50;;;;;;;2.75;1.42;;;2.50;99.90;;;;;;6252838;23;20206;-82
2024/01/05 10:12:18;;;;;;;1.33;1.27;;;2.40;99.90;;;;;;6253683;23;20200;-84
2024/01/05 10:14:48;;;;;;;0.73;0.73;;;2.30;99.90;;;;;;6251376;23;20247;-83
2024/01/05 10:17:16;;;;;;;1.45;1.35;;;2.10;99.90;;;;;;6250657;22;20230;-84
2024/01/05 10:19:43;;;;;;;1.35;1.35;;;2.20;99.90;;;;;;6249445;23;20184;-82
2024/01/05 10:22:14;;;;;;;1.42;1.33;;;2.20;99.90;;;;;;6250527;23;20190;-82
2024/01/05 10:24:42;;;;;;;0.80;0.80;;;2.20;99.90;;;;;;6226325;23;20190;-83
2024/01/05 10:27:11;;;;;;;1.40;1.40;;;2.40;99.90;;;;;;6249709;23;20522;-85
2024/01/05 10:29:42;;;;;;;1.10;1.10;;;2.40;99.90;;;;;;6251577;23;20171;-82
2024/01/05 10:32:20;;;;;;;0.80;0.80;;;2.30;99.90;;;;;;6252775;23;20193;-81
2024/01/05 10:34:49;;;;;;;1.02;0.98;;;2.30;99.90;;;;;;6225534;23;20167;-81
2024/01/05 10:37:19;;;;;;;1.38;1.33;;;2.00;99.90;;;;;;6253055;23;20176;-82
2024/01/05 10:39:47;;;;;;;1.15;1.15;;;2.10;99.90;;;;;;6257133;23;20175;-83
2024/01/05 10:42:25;;;;;;;0.60;0.60;;;2.10;99.90;;;;;;6253976;23;20193;-84
2024/01/05 10:44:54;;;;;;;0.52;0.52;;;2.20;99.90;;;;;;6253903;23;20163;-81
2024/01/05 10:47:23;;;;;;;0.70;0.70;;;2.20;99.90;;;;;;6264187;22;20178;-83
2024/01/05 10:49:52;;;;;;;7.30;2.38;;;2.20;99.90;;;;;;6270336;23;20172;-84
2024/01/05 10:52:22;;;;;;;0.93;0.85;;;2.20;99.90;;;;;;6259304;23;20628;-86
2024/01/05 10:54:52;;;;;;;1.85;1.75;;;2.40;99.90;;;;;;6254067;23;20180;-85
2024/01/05 10:57:20;;;;;;;2.50;2.30;;;2.50;99.90;;;;;;6251613;23;20187;-86
2024/01/05 10:59:50;;;;;;;1.20;1.20;;;2.30;99.90;;;;;;6226305;23;20175;-83
2024/01/05 11:02:22;;;;;;;1.70;1.67;;;2.20;99.90;;;;;;6252842;23;20187;-84
2024/01/05 11:05:11;;;;;;;0.65;0.65;;;2.10;99.90;;;;;;6226384;23;20168;-83
2024/01/05 11:07:41;;;;;;;3.08;2.90;;;2.10;99.90;;;;;;6254640;23;20164;-82
2024/01/05 11:10:20;;;;;;;2.80;2.05;;;2.10;99.90;;;;;;6254891;23;20183;-82
2024/01/05 11:13:29;;;;;;;2.35;2.25;;;2.10;99.90;;;;;;6251518;23;20215;-80
2024/01/05 11:16:15;;;;;;;0.75;0.75;;;2.00;99.90;;;;;;6250384;23;20182;-81
2024/01/05 11:18:51;;;;;;;0.90;0.90;;;2.10;99.90;;;;;;6225379;23;20164;-83
2024/01/05 11:21:47;;;;;;;2.58;1.63;;;2.20;99.90;;;;;;6254419;23;20201;-83
2024/01/05 11:24:15;;;;;;;3.60;3.45;;;2.30;99.90;;;;;;6250003;23;20222;-82
2024/01/05 11:26:48;;;;;;;3.17;2.95;;;2.30;99.90;;;;;;6228306;23;20183;-82
2024/01/05 11:29:48;;;;;;;1.40;1.40;;;2.50;99.90;;;;;;6257399;23;20183;-84
2024/01/05 11:32:42;;;;;;;2.17;2.08;;;2.60;99.90;;;;;;6254484;23;20417;-82
2024/01/05 11:35:32;;;;;;;1.02;1.02;;;2.60;99.90;;;;;;6247310;23;20229;-82
2024/01/05 11:38:23;;;;;;;4.68;4.40;;;2.40;99.90;;;;;;6252242;23;20403;-82
2024/01/05 11:40:50;;;;;;;2.60;2.47;;;2.50;99.90;;;;;;6254087;23;20151;-83
2024/01/05 11:43:37;;;;;;;4.22;1.67;;;2.60;99.90;;;;;;6237077;23;20194;-83
2024/01/05 11:46:04;;;;;;;0.93;0.93;;;2.70;99.90;;;;;;6252597;23;20178;-83
2024/01/05 11:48:34;;;;;;;1.58;1.42;;;2.70;99.90;;;;;;6253994;23;20182;-83
2024/01/05 11:51:10;;;;;;;2.15;1.95;;;2.90;99.90;;;;;;6254557;23;20187;-84
2024/01/05 11:53:38;;;;;;;1.88;1.77;;;2.90;99.90;;;;;;6255746;23;20191;-84
2024/01/05 11:56:17;;;;;;;1.98;1.88;;;3.00;99.90;;;;;;6225264;23;20190;-79
2024/01/05 11:58:46;;;;;;;1.95;1.85;;;2.70;99.90;;;;;;6225184;23;20171;-82
2024/01/05 12:01:16;;;;;;;1.67;1.58;;;2.80;99.90;;;;;;6251042;23;20222;-84
2024/01/05 12:03:43;;;;;;;3.00;2.90;;;2.70;99.90;;;;;;6252827;23;20696;-82
2024/01/05 12:06:12;;;;;;;0.70;0.70;;;2.70;99.90;;;;;;6253178;23;20243;-83
2024/01/05 12:08:40;;;;;;;2.08;1.98;;;2.80;99.90;;;;;;6253441;23;20491;-80
2024/01/05 12:11:10;;;;;;;1.95;1.80;;;2.90;99.90;;;;;;6251311;23;20317;-82
2024/01/05 12:13:38;;;;;;;2.72;2.63;;;3.00;99.90;;;;;;6251418;23;20515;-81
2024/01/05 12:16:09;;;;;;;1.80;1.73;;;3.10;99.90;;;;;;6252668;23;20255;-83
2024/01/05 12:18:43;;;;;;;3.22;2.90;;;3.20;99.90;;;;;;6252150;23;20482;-81
2024/01/05 12:21:17;;;;;;;2.15;2.05;;;3.20;99.90;;;;;;6252197;23;20255;-80
2024/01/05 12:23:55;;;;;;;3.40;2.58;;;3.20;99.90;;;;;;6253496;23;20193;-80
2024/01/05 12:26:23;;;;;;;3.08;2.88;;;3.20;99.90;;;;;;6255522;23;20176;-80
2024/01/05 12:28:53;;;;;;;2.83;2.72;;;3.40;99.90;;;;;;6252913;23;20422;-81
2024/01/05 12:31:21;;;;;;;1.98;1.90;;;3.30;99.90;;;;;;6252384;23;20483;-81
2024/01/05 12:33:50;;;;;;;3.92;3.65;;;3.10;99.90;;;;;;6252002;23;20528;-80
2024/01/05 12:36:27;;;;;;;3.55;3.33;;;3.10;99.90;;;;;;6225260;23;20184;-82
2024/01/05 12:39:10;;;;;;;2.88;2.67;;;3.10;99.90;;;;;;6254905;23;20183;-81
2024/01/05 12:41:42;;;;;;;13.23;2.53;;;3.10;99.90;;;;;;6267636;22;20186;-81
2024/01/05 12:44:10;;;;;;;2.05;1.95;;;2.90;99.90;;;;;;6268616;22;20183;-81
2024/01/05 12:46:46;;;;;;;0.98;0.98;;;3.00;99.90;;;;;;6240502;22;20210;-82
2024/01/05 12:49:24;;;;;;;11.38;5.22;;;2.80;99.90;;;;;;6256877;23;20187;-84
2024/01/05 12:51:52;;;;;;;3.13;2.88;;;2.90;99.90;;;;;;6254031;23;20163;-83
2024/01/05 12:54:21;;;;;;;7.03;4.10;;;2.80;99.90;;;;;;6250951;23;20257;-79
2024/01/05 12:56:50;;;;;;;5.53;5.18;;;2.80;99.90;;;;;;6225421;23;20184;-81
2024/01/05 12:59:25;;;;;;;5.88;3.47;;;2.80;99.90;;;;;;6252168;23;20483;-81
2024/01/05 13:02:02;;;;;;;1.23;1.23;;;2.80;99.90;;;;;;6252664;23;20215;-81
2024/01/05 13:04:31;;;;;;;1.95;1.85;;;2.90;99.90;;;;;;6251795;23;20490;-82
2024/01/05 13:07:08;;;;;;;4.30;3.15;;;2.80;99.90;;;;;;6254109;23;20182;-81